Time;durP1;ratioP1;P1;durP2;ratioP2;P2;SDS_P1;SDS_P2;PMS_P1;PMS_P2;Temp;Humidity;BMP_temperature;BMP_pressure;BME280_temperature;BME280_humidity;BME280_pressure;Samples;Min_cycle;Max_cycle;Signal;HPM_P1;HPM_P2
2021/12/09 00:00:35;;;;;;;9.35;6.13;;;;;;;3.00;79.50;95283.41;5013292;28;20065;-75
2021/12/09 00:03:06;;;;;;;9.05;6.88;;;;;;;2.98;79.76;95275.84;5013645;28;20050;-77
2021/12/09 00:05:35;;;;;;;7.50;6.25;;;;;;;3.01;79.83;95265.19;5013807;28;20050;-77
2021/12/09 00:08:05;;;;;;;9.40;6.90;;;;;;;3.00;79.33;95268.75;5012935;28;20069;-75
2021/12/09 00:10:33;;;;;;;11.45;6.85;;;;;;;2.94;78.78;95284.88;5012874;28;20056;-75
2021/12/09 00:13:01;;;;;;;9.52;7.22;;;;;;;2.85;78.49;95301.34;5012959;28;20052;-76
2021/12/09 00:15:29;;;;;;;10.00;7.40;;;;;;;2.78;79.06;95300.41;5013208;28;20050;-76
2021/12/09 00:17:56;;;;;;;13.02;7.95;;;;;;;2.75;79.11;95304.09;5012749;28;20061;-75
2021/12/09 00:20:24;;;;;;;10.27;8.10;;;;;;;2.71;79.10;95305.38;5012722;28;20050;-75
2021/12/09 00:22:52;;;;;;;12.93;8.45;;;;;;;2.69;79.45;95302.19;5012707;28;20077;-76
2021/12/09 00:25:20;;;;;;;11.05;8.63;;;;;;;2.68;79.54;95298.00;5012682;28;20050;-76
2021/12/09 00:27:48;;;;;;;9.30;7.15;;;;;;;2.72;79.51;95306.19;5012340;28;20053;-78
2021/12/09 00:30:16;;;;;;;8.55;7.38;;;;;;;2.73;80.09;95295.72;5012721;28;20061;-77
2021/12/09 00:32:43;;;;;;;10.73;8.02;;;;;;;2.75;79.46;95293.78;5012768;28;20053;-76
2021/12/09 00:35:13;;;;;;;10.82;7.60;;;;;;;2.74;79.65;95271.59;5012625;28;20046;-76
2021/12/09 00:37:52;;;;;;;9.57;7.35;;;;;;;2.78;80.02;95267.72;5013356;28;20056;-75
2021/12/09 00:40:21;;;;;;;10.23;7.60;;;;;;;2.85;80.54;95265.28;5012689;28;20057;-76
2021/12/09 00:42:49;;;;;;;10.82;7.53;;;;;;;2.89;80.49;95263.97;5012669;28;20049;-75
2021/12/09 00:45:17;;;;;;;10.95;7.28;;;;;;;2.94;80.58;95277.16;5012589;28;20073;-75
2021/12/09 00:47:45;;;;;;;9.60;7.53;;;;;;;2.93;79.31;95298.75;5012203;28;20057;-75
2021/12/09 00:50:13;;;;;;;12.13;8.07;;;;;;;2.92;79.24;95306.63;5012448;28;20046;-76
2021/12/09 00:52:41;;;;;;;12.90;8.68;;;;;;;2.91;79.28;95299.84;5012314;28;20049;-75
2021/12/09 00:55:10;;;;;;;9.63;7.18;;;;;;;2.90;79.47;95309.34;5011774;28;20419;-75
2021/12/09 00:57:41;;;;;;;9.25;6.90;;;;;;;2.91;79.76;95310.16;5012190;28;20053;-75
2021/12/09 01:00:12;;;;;;;9.77;7.97;;;;;;;2.89;79.31;95318.88;5012217;28;20129;-76
2021/12/09 01:02:39;;;;;;;8.38;6.70;;;;;;;2.91;79.55;95325.59;5012185;28;20058;-77
2021/12/09 01:05:10;;;;;;;8.88;6.65;;;;;;;2.93;79.46;95328.81;5012438;28;20593;-77
2021/12/09 01:07:39;;;;;;;10.50;7.50;;;;;;;2.95;79.43;95321.72;5012392;28;20049;-75
2021/12/09 01:10:10;;;;;;;9.80;7.60;;;;;;;3.00;79.73;95319.47;5012309;28;20050;-76
2021/12/09 01:12:39;;;;;;;9.75;7.15;;;;;;;3.03;80.05;95309.63;5012176;28;20523;-75
2021/12/09 01:15:09;;;;;;;10.65;7.65;;;;;;;3.08;79.78;95309.13;5012452;28;20057;-75
2021/12/09 01:17:36;;;;;;;13.05;7.75;;;;;;;3.10;80.14;95304.63;5011972;28;20499;-75
2021/12/09 01:20:06;;;;;;;10.80;8.00;;;;;;;3.11;80.24;95301.09;5012565;28;20050;-76
2021/12/09 01:22:38;;;;;;;11.60;7.70;;;;;;;3.13;80.12;95314.59;5012120;28;20138;-76
2021/12/09 01:25:08;;;;;;;12.88;7.82;;;;;;;3.11;79.12;95305.44;5012543;28;20050;-76
2021/12/09 01:27:38;;;;;;;10.25;7.45;;;;;;;3.06;79.29;95305.91;5012061;28;20673;-78
2021/12/09 01:30:13;;;;;;;9.05;7.25;;;;;;;3.01;79.02;95310.78;5012258;28;20049;-76
2021/12/09 01:32:48;;;;;;;9.10;6.68;;;;;;;3.01;78.89;95327.03;5012502;28;20053;-76
2021/12/09 01:35:16;;;;;;;12.18;7.45;;;;;;;3.00;79.60;95316.91;5012206;28;20049;-76
2021/12/09 01:37:45;;;;;;;10.18;7.20;;;;;;;2.99;79.12;95328.16;5011430;28;20508;-75
2021/12/09 01:40:13;;;;;;;9.43;7.00;;;;;;;2.97;79.13;95336.06;5012091;28;20057;-75
2021/12/09 01:42:41;;;;;;;12.13;7.68;;;;;;;2.92;78.77;95332.38;5012513;28;20053;-76
2021/12/09 01:45:11;;;;;;;9.85;7.15;;;;;;;2.91;79.16;95325.59;5012234;28;20050;-75
2021/12/09 01:47:39;;;;;;;7.93;6.63;;;;;;;2.91;79.50;95310.16;5011584;28;20046;-74
2021/12/09 01:50:09;;;;;;;8.80;6.53;;;;;;;2.91;78.89;95315.31;5012008;28;20054;-76
2021/12/09 01:52:37;;;;;;;8.85;6.70;;;;;;;2.88;79.32;95309.50;5011743;28;20065;-75
2021/12/09 01:55:06;;;;;;;7.30;5.97;;;;;;;2.91;79.10;95303.25;5012473;28;20053;-77
2021/12/09 01:57:34;;;;;;;7.57;5.85;;;;;;;2.94;79.45;95309.84;5012878;28;20053;-75
2021/12/09 02:00:02;;;;;;;6.85;6.15;;;;;;;2.98;79.91;95311.91;5012882;28;20090;-76
2021/12/09 02:02:31;;;;;;;6.90;5.72;;;;;;;2.99;79.09;95328.16;5012133;28;20073;-76
2021/12/09 02:05:19;;;;;;;7.22;5.38;;;;;;;2.98;79.31;95331.72;5011824;28;20092;-75
2021/12/09 02:07:47;;;;;;;7.03;5.70;;;;;;;2.99;79.49;95333.31;5014644;28;20474;-75
2021/12/09 02:10:18;;;;;;;7.25;6.00;;;;;;;3.00;80.19;95332.38;5015646;28;20056;-74
2021/12/09 02:12:47;;;;;;;6.82;5.38;;;;;;;3.02;80.32;95348.47;5015582;28;20076;-75
2021/12/09 02:15:15;;;;;;;6.40;5.30;;;;;;;3.06;79.63;95354.88;5015740;28;20061;-75
2021/12/09 02:17:44;;;;;;;5.75;5.00;;;;;;;3.06;79.49;95362.59;5013466;28;20053;-74
2021/12/09 02:20:12;;;;;;;5.30;4.68;;;;;;;3.07;79.73;95361.63;5013189;28;20057;-75
2021/12/09 02:22:46;;;;;;;5.85;4.80;;;;;;;3.06;79.76;95357.44;5013118;28;20049;-75
2021/12/09 02:25:14;;;;;;;5.13;4.22;;;;;;;3.03;79.10;95355.22;5014900;28;20050;-76
2021/12/09 02:27:42;;;;;;;4.65;3.90;;;;;;;3.00;79.12;95352.97;5014905;28;20494;-75
2021/12/09 02:30:11;;;;;;;4.38;3.97;;;;;;;2.95;78.66;95350.91;5013798;28;20045;-75
2021/12/09 02:32:39;;;;;;;4.47;3.78;;;;;;;2.93;78.67;95357.16;5013421;28;20050;-75
2021/12/09 02:35:07;;;;;;;5.75;4.53;;;;;;;2.92;79.52;95358.13;5014932;28;20049;-76
2021/12/09 02:37:35;;;;;;;5.15;4.03;;;;;;;2.94;79.61;95357.00;5015051;28;20054;-75
2021/12/09 02:40:05;;;;;;;4.88;4.20;;;;;;;2.93;79.47;95355.41;5014575;28;20062;-75
2021/12/09 02:42:34;;;;;;;4.93;4.10;;;;;;;2.94;80.09;95354.44;5013312;28;20049;-75
2021/12/09 02:45:01;;;;;;;5.28;4.38;;;;;;;2.97;79.91;95355.88;5013986;28;20060;-74
2021/12/09 02:47:29;;;;;;;6.53;5.40;;;;;;;2.94;79.38;95363.94;5014002;28;20052;-75
2021/12/09 02:49:56;;;;;;;6.13;5.00;;;;;;;2.87;79.31;95371.50;5018639;28;20049;-81
2021/12/09 02:52:24;;;;;;;5.47;4.40;;;;;;;2.84;79.59;95382.94;5020958;28;20050;-78
2021/12/09 02:54:51;;;;;;;4.60;4.13;;;;;;;2.85;79.44;95370.88;5014440;28;20050;-76
2021/12/09 02:57:20;;;;;;;5.75;4.53;;;;;;;2.87;79.87;95362.00;5014464;28;20046;-76
2021/12/09 02:59:48;;;;;;;4.97;4.47;;;;;;;2.89;79.93;95365.22;5014789;28;20054;-75
2021/12/09 03:02:16;;;;;;;6.90;5.47;;;;;;;2.91;80.05;95364.25;5017330;28;20056;-76
2021/12/09 03:04:48;;;;;;;6.15;5.40;;;;;;;2.93;80.51;95364.88;5016086;28;20049;-77
2021/12/09 03:07:23;;;;;;;5.82;5.07;;;;;;;2.95;79.91;95352.66;5014072;28;20053;-75
2021/12/09 03:09:55;;;;;;;5.63;4.60;;;;;;;2.93;79.85;95331.41;5014444;28;20053;-77
2021/12/09 03:12:26;;;;;;;5.15;4.40;;;;;;;2.92;79.78;95337.53;5014523;28;20050;-76
2021/12/09 03:14:53;;;;;;;6.88;5.35;;;;;;;2.91;79.72;95343.63;5014277;28;20054;-76
2021/12/09 03:17:21;;;;;;;5.78;4.68;;;;;;;2.92;79.67;95353.00;5013781;28;20046;-76
2021/12/09 03:19:49;;;;;;;6.45;5.35;;;;;;;2.91;79.38;95361.66;5013200;28;20046;-76
2021/12/09 03:22:17;;;;;;;7.05;5.60;;;;;;;2.86;79.19;95362.16;5014173;28;20057;-76
2021/12/09 03:24:45;;;;;;;5.85;5.25;;;;;;;2.81;79.22;95367.81;5014011;28;20058;-75
2021/12/09 03:27:12;;;;;;;6.40;5.10;;;;;;;2.77;79.35;95374.25;5013800;28;20053;-76
2021/12/09 03:29:41;;;;;;;8.63;6.72;;;;;;;2.74;78.82;95360.91;5014036;28;20049;-76
2021/12/09 03:32:11;;;;;;;7.80;5.40;;;;;;;2.68;79.40;95360.59;5013798;28;20057;-76
2021/12/09 03:34:41;;;;;;;7.05;5.45;;;;;;;2.68;79.73;95362.34;5013569;28;20060;-76
2021/12/09 03:37:11;;;;;;;9.63;6.30;;;;;;;2.68;79.81;95362.34;5013327;28;20404;-76
2021/12/09 03:39:41;;;;;;;8.05;6.60;;;;;;;2.74;80.32;95369.44;5014042;28;20477;-74
2021/12/09 03:42:11;;;;;;;6.95;5.57;;;;;;;2.81;80.92;95372.16;5014026;28;20050;-78
2021/12/09 03:44:39;;;;;;;10.40;6.90;;;;;;;2.87;80.39;95371.50;5013604;28;20542;-76
2021/12/09 03:47:10;;;;;;;8.90;6.80;;;;;;;2.93;80.52;95372.59;5013318;28;20423;-76
2021/12/09 03:49:38;;;;;;;8.30;6.40;;;;;;;2.96;80.29;95364.56;5013550;28;20049;-77
2021/12/09 03:52:06;;;;;;;10.00;6.72;;;;;;;3.00;80.31;95371.00;5013439;28;20061;-76
2021/12/09 03:54:33;;;;;;;8.50;6.47;;;;;;;3.01;80.08;95363.09;5014064;28;20061;-76
2021/12/09 03:57:02;;;;;;;10.73;7.40;;;;;;;3.04;80.31;95367.09;5014366;28;20053;-75
2021/12/09 03:59:30;;;;;;;9.60;6.72;;;;;;;3.03;80.37;95368.09;5013511;28;20054;-75
2021/12/09 04:01:57;;;;;;;8.35;6.43;;;;;;;3.05;80.39;95368.72;5012999;28;20548;-75
2021/12/09 04:04:27;;;;;;;10.52;6.80;;;;;;;3.05;80.32;95368.72;5013276;28;20423;-75
2021/12/09 04:06:54;;;;;;;11.00;6.22;;;;;;;3.03;79.90;95388.69;5013047;28;20057;-75
2021/12/09 04:09:23;;;;;;;7.97;5.60;;;;;;;3.01;80.60;95396.59;5013160;28;20054;-75
2021/12/09 04:11:51;;;;;;;8.32;6.28;;;;;;;3.00;80.08;95405.28;5013027;28;20046;-75
2021/12/09 04:14:19;;;;;;;6.82;5.47;;;;;;;3.03;79.85;95399.00;5013167;28;20054;-77
2021/12/09 04:16:48;;;;;;;7.00;5.60;;;;;;;3.04;80.34;95400.59;5012782;28;20404;-76
2021/12/09 04:19:16;;;;;;;7.93;5.72;;;;;;;3.05;80.44;95404.81;5012978;28;20062;-75
2021/12/09 04:21:46;;;;;;;8.60;6.15;;;;;;;3.05;80.06;95399.66;5062770;22;20048;-73
2021/12/09 04:24:15;;;;;;;8.93;6.97;;;;;;;3.05;80.13;95402.22;5093175;28;20052;-73
2021/12/09 04:26:45;;;;;;;8.48;6.38;;;;;;;3.05;80.29;95404.81;5092360;28;20520;-73
2021/12/09 04:29:14;;;;;;;10.13;7.45;;;;;;;3.05;80.08;95400.44;5092440;28;20055;-73
2021/12/09 04:31:42;;;;;;;10.68;7.80;;;;;;;3.05;80.08;95404.81;5092544;28;20047;-73
2021/12/09 04:34:11;;;;;;;10.65;7.65;;;;;;;3.02;79.51;95402.56;5092694;28;20052;-73
2021/12/09 04:36:39;;;;;;;10.23;7.50;;;;;;;3.00;79.61;95401.91;5092263;28;20130;-73
2021/12/09 04:39:08;;;;;;;10.20;7.38;;;;;;;2.99;80.00;95408.03;5092572;28;20055;-74
2021/12/09 04:41:35;;;;;;;10.82;7.60;;;;;;;2.98;79.78;95414.16;5092749;28;20047;-73
2021/12/09 04:44:04;;;;;;;11.07;7.93;;;;;;;2.96;80.00;95422.03;5092331;28;20056;-73
2021/12/09 04:46:32;;;;;;;9.30;6.75;;;;;;;2.97;80.34;95423.63;5092012;28;20052;-72
2021/12/09 04:49:00;;;;;;;10.35;7.20;;;;;;;2.99;80.31;95433.78;5092443;28;20493;-75
2021/12/09 04:51:27;;;;;;;9.65;7.40;;;;;;;3.00;80.20;95443.94;5092532;28;20559;-73
2021/12/09 04:53:55;;;;;;;11.25;7.93;;;;;;;3.00;80.31;95446.50;5092939;28;20048;-73
2021/12/09 04:56:24;;;;;;;10.18;8.25;;;;;;;3.02;80.56;95443.78;5102946;28;20051;-73
2021/12/09 04:58:52;;;;;;;9.55;7.03;;;;;;;3.05;80.30;95446.03;5095412;28;20048;-76
2021/12/09 05:01:20;;;;;;;7.65;5.93;;;;;;;3.00;79.65;95449.09;5095146;28;20051;-75
2021/12/09 05:03:48;;;;;;;6.85;5.80;;;;;;;2.96;79.62;95447.00;5094425;28;20084;-73
2021/12/09 05:06:17;;;;;;;7.10;5.90;;;;;;;2.97;80.26;95449.41;5093125;28;20520;-77
2021/12/09 05:08:48;;;;;;;5.80;5.03;;;;;;;2.99;80.43;95444.09;5093346;28;20425;-73
2021/12/09 05:11:29;;;;;;;6.97;5.95;;;;;;;2.97;80.22;95446.81;5094046;28;20066;-73
2021/12/09 05:13:59;;;;;;;7.55;6.18;;;;;;;2.99;80.78;95459.53;5093381;28;20101;-72
2021/12/09 05:16:27;;;;;;;7.40;5.95;;;;;;;3.01;80.66;95461.00;5091951;28;20048;-75
2021/12/09 05:18:58;;;;;;;7.78;5.65;;;;;;;3.03;80.38;95464.22;5092973;28;20054;-73
2021/12/09 05:21:29;;;;;;;8.57;6.53;;;;;;;3.04;80.60;95470.16;5092599;28;20080;-73
2021/12/09 05:23:57;;;;;;;6.90;5.38;;;;;;;3.03;79.99;95469.34;5093016;28;20494;-73
2021/12/09 05:26:30;;;;;;;6.07;5.30;;;;;;;3.04;80.64;95467.59;5091747;28;20536;-72
2021/12/09 05:28:59;;;;;;;6.80;5.38;;;;;;;3.06;80.58;95473.38;5092724;28;20055;-75
2021/12/09 05:34:13;;;;;;;9.50;7.03;;;;;;;3.09;80.33;95471.28;5092644;28;20059;-73
2021/12/09 05:36:41;;;;;;;9.57;6.70;;;;;;;3.10;80.23;95472.09;5091913;28;20055;-73
2021/12/09 05:39:13;;;;;;;7.85;6.00;;;;;;;3.07;80.21;95475.00;5092305;28;20059;-76
2021/12/09 05:41:42;;;;;;;8.13;5.60;;;;;;;3.07;80.19;95480.16;5093208;28;20493;-73
2021/12/09 05:44:13;;;;;;;7.43;5.60;;;;;;;3.06;79.95;95481.94;5096932;28;20056;-73
2021/12/09 05:46:44;;;;;;;8.65;6.10;;;;;;;3.07;80.51;95482.72;5095796;28;20398;-75
2021/12/09 05:49:13;;;;;;;8.27;5.40;;;;;;;3.06;80.58;95491.41;5096008;28;20051;-73
2021/12/09 05:51:41;;;;;;;78.68;43.70;;;;;;;3.06;80.31;95496.56;5095919;28;20418;-73
2021/12/09 05:54:09;;;;;;;27.92;17.23;;;;;;;3.06;80.46;95505.13;5095880;28;20052;-73
2021/12/09 05:56:37;;;;;;;9.52;7.05;;;;;;;3.06;80.86;95504.28;5095670;28;20505;-74
2021/12/09 05:59:07;;;;;;;7.18;5.53;;;;;;;3.06;80.82;95501.72;5095973;28;20044;-73
2021/12/09 06:01:36;;;;;;;6.72;5.50;;;;;;;3.08;80.35;95508.34;5095730;28;20059;-72
2021/12/09 06:04:05;;;;;;;7.13;5.65;;;;;;;3.08;80.35;95499.78;5095731;28;20127;-74
2021/12/09 06:06:32;;;;;;;7.07;5.43;;;;;;;3.07;80.22;95503.34;5095219;28;20444;-73
2021/12/09 06:09:00;;;;;;;7.15;5.53;;;;;;;3.08;80.37;95504.94;5095561;28;20051;-75
2021/12/09 06:11:27;;;;;;;8.32;6.18;;;;;;;3.08;80.21;95502.38;5095703;28;20055;-75
2021/12/09 06:13:55;;;;;;;9.68;6.97;;;;;;;3.10;80.45;95497.84;5096327;28;20071;-77
2021/12/09 06:16:24;;;;;;;10.10;7.55;;;;;;;3.13;80.88;95496.72;5095757;28;20056;-76
2021/12/09 06:18:55;;;;;;;13.43;8.55;;;;;;;3.11;80.33;95506.41;5096000;28;20075;-76
2021/12/09 06:21:24;;;;;;;14.15;8.68;;;;;;;3.09;80.41;95506.56;5096060;28;20048;-78
2021/12/09 06:23:51;;;;;;;13.25;8.77;;;;;;;3.07;80.65;95511.06;5095947;28;20603;-75
2021/12/09 06:26:19;;;;;;;13.82;9.60;;;;;;;3.06;80.51;95512.03;5096450;28;20055;-77
2021/12/09 06:28:46;;;;;;;16.90;10.70;;;;;;;3.05;81.00;95511.22;5095656;28;20059;-76
2021/12/09 06:31:14;;;;;;;17.33;10.15;;;;;;;3.02;80.68;95513.34;5095624;28;20048;-75
2021/12/09 06:33:42;;;;;;;17.35;9.70;;;;;;;3.03;80.56;95512.38;5095948;28;20043;-77
2021/12/09 06:36:11;;;;;;;19.33;11.00;;;;;;;3.01;80.70;95525.41;5083887;28;20066;-78
2021/12/09 06:38:39;;;;;;;17.55;11.13;;;;;;;3.00;81.00;95518.66;5095921;28;20505;-75
2021/12/09 06:41:08;;;;;;;19.55;11.13;;;;;;;3.00;81.39;95526.38;5095487;28;20052;-75
2021/12/09 06:43:37;;;;;;;18.60;10.82;;;;;;;2.98;81.36;95528.31;5096713;28;20055;-76
2021/12/09 06:46:06;;;;;;;19.20;11.63;;;;;;;2.95;81.44;95530.38;5086444;28;20056;-75
2021/12/09 06:48:35;;;;;;;21.25;11.35;;;;;;;2.95;80.90;95538.13;5096459;28;20127;-80
2021/12/09 06:51:05;;;;;;;16.98;11.07;;;;;;;2.94;81.30;95537.31;5095671;28;20048;-76
2021/12/09 06:53:35;;;;;;;17.65;10.20;;;;;;;2.94;81.12;95536.50;5073791;28;20053;-75
2021/12/09 06:56:04;;;;;;;14.32;10.68;;;;;;;2.94;81.13;95537.31;5086481;28;20059;-77
2021/12/09 06:58:32;;;;;;;16.50;11.15;;;;;;;2.95;81.27;95538.13;5094886;28;20055;-75
2021/12/09 07:01:00;;;;;;;17.38;10.63;;;;;;;2.96;81.12;95530.22;5094545;28;20048;-76
2021/12/09 07:03:29;;;;;;;18.45;11.52;;;;;;;2.97;81.21;95526.69;5095527;28;20052;-75
2021/12/09 07:06:01;;;;;;;18.80;11.30;;;;;;;2.98;81.19;95532.66;5094546;28;20048;-74
2021/12/09 07:08:28;;;;;;;18.92;11.85;;;;;;;2.98;80.97;95533.47;5078574;28;20051;-75
2021/12/09 07:10:57;;;;;;;17.75;11.75;;;;;;;2.97;81.43;95534.41;5075911;28;20067;-74
2021/12/09 07:13:25;;;;;;;17.27;11.48;;;;;;;2.99;81.17;95531.69;5075209;28;20067;-75
2021/12/09 07:15:52;;;;;;;19.33;12.50;;;;;;;2.99;81.44;95534.25;5074653;28;20052;-76
2021/12/09 07:18:22;;;;;;;16.15;11.40;;;;;;;3.00;81.54;95533.31;5074564;28;20056;-74
2021/12/09 07:20:50;;;;;;;22.42;13.45;;;;;;;3.00;81.56;95541.03;5075167;28;20049;-76
2021/12/09 07:23:17;;;;;;;15.73;12.40;;;;;;;3.02;81.50;95544.25;5075216;28;20055;-75
2021/12/09 07:25:45;;;;;;;21.02;12.93;;;;;;;3.00;81.16;95538.47;5074784;28;20044;-75
2021/12/09 07:28:14;;;;;;;19.92;13.43;;;;;;;2.98;81.07;95542.97;5074724;28;20453;-74
2021/12/09 07:30:42;;;;;;;22.90;13.05;;;;;;;3.00;81.35;95546.19;5074587;28;20481;-76
2021/12/09 07:33:10;;;;;;;22.10;13.75;;;;;;;3.02;81.13;95539.09;5075208;28;20098;-78
2021/12/09 07:35:39;;;;;;;19.25;12.68;;;;;;;3.04;81.54;95539.72;5074919;28;20060;-75
2021/12/09 07:38:06;;;;;;;18.95;11.15;;;;;;;3.06;81.13;95542.94;5079321;28;20048;-77
2021/12/09 07:40:34;;;;;;;17.40;12.52;;;;;;;3.07;81.31;95547.16;5079520;28;20056;-77
2021/12/09 07:43:01;;;;;;;22.95;14.38;;;;;;;3.07;81.03;95545.38;5078650;28;20494;-78
2021/12/09 07:45:31;;;;;;;22.65;13.38;;;;;;;3.11;81.35;95555.38;5077862;28;20049;-77
2021/12/09 07:47:59;;;;;;;21.00;13.43;;;;;;;3.09;81.43;95548.59;5078045;28;20053;-74
2021/12/09 07:50:29;;;;;;;22.65;14.25;;;;;;;3.11;81.24;95556.16;5078171;28;20063;-76
2021/12/09 07:52:57;;;;;;;20.40;14.02;;;;;;;3.13;81.12;95561.97;5076898;28;20058;-76
2021/12/09 07:55:25;;;;;;;24.30;12.73;;;;;;;3.15;81.29;95559.22;5074838;28;20049;-75
2021/12/09 07:57:53;;;;;;;21.38;13.57;;;;;;;3.16;80.94;95558.25;5074731;28;20048;-79
2021/12/09 08:00:23;;;;;;;20.92;14.38;;;;;;;3.16;80.87;95571.94;5076521;28;20403;-77
2021/12/09 08:02:54;;;;;;;23.48;14.73;;;;;;;3.18;81.06;95580.31;5075508;28;20044;-76
2021/12/09 08:05:24;;;;;;;20.38;13.50;;;;;;;3.19;81.03;95581.94;5073724;28;20544;-74
2021/12/09 08:07:52;;;;;;;18.83;12.30;;;;;;;3.20;81.22;95585.31;5074098;28;20520;-76
2021/12/09 08:10:22;;;;;;;22.60;14.15;;;;;;;3.17;80.93;95583.88;5074755;28;20048;-74
2021/12/09 08:12:50;;;;;;;18.25;12.48;;;;;;;3.16;80.67;95587.41;5074739;28;20071;-76
2021/12/09 08:15:28;;;;;;;20.75;12.40;;;;;;;3.17;80.51;95595.94;5074448;28;20055;-78
2021/12/09 08:18:02;;;;;;;22.25;13.48;;;;;;;3.19;80.86;95596.56;5073639;28;20060;-75
2021/12/09 08:20:32;;;;;;;21.27;13.90;;;;;;;3.21;80.84;95604.97;5074480;28;20083;-76
2021/12/09 08:23:00;;;;;;;17.20;12.80;;;;;;;3.24;81.14;95599.50;5073705;28;20049;-74
2021/12/09 08:25:28;;;;;;;20.63;12.40;;;;;;;3.26;81.10;95606.09;5074789;28;20087;-75
2021/12/09 08:27:55;;;;;;;19.98;13.38;;;;;;;3.28;80.79;95601.59;5073647;28;20052;-74
2021/12/09 08:30:25;;;;;;;17.88;10.80;;;;;;;3.28;80.50;95606.75;5074363;28;20053;-76
2021/12/09 08:33:14;;;;;;;17.00;11.73;;;;;;;3.30;80.51;95606.56;5073831;28;20052;-74
2021/12/09 08:35:41;;;;;;;22.20;12.45;;;;;;;3.33;80.66;95608.03;5073783;28;20506;-75
2021/12/09 08:38:09;;;;;;;20.13;11.65;;;;;;;3.33;80.57;95618.34;5072554;28;20086;-74
2021/12/09 08:40:37;;;;;;;13.55;8.93;;;;;;;3.34;80.32;95622.53;5073674;28;20052;-73
2021/12/09 08:43:06;;;;;;;20.48;12.30;;;;;;;3.35;80.37;95627.53;5073555;28;20053;-74
2021/12/09 08:45:33;;;;;;;16.85;9.50;;;;;;;3.35;80.09;95624.94;5072904;28;20063;-73
2021/12/09 08:48:01;;;;;;;14.75;10.43;;;;;;;3.35;80.08;95631.88;5072599;28;20517;-74
2021/12/09 08:50:33;;;;;;;17.73;9.25;;;;;;;3.37;80.14;95629.94;5073590;28;20063;-74
2021/12/09 08:53:02;;;;;;;13.48;9.95;;;;;;;3.39;80.40;95623.66;5073728;28;20439;-75
2021/12/09 08:55:30;;;;;;;15.15;9.93;;;;;;;3.43;80.55;95634.44;5073897;28;20055;-74
2021/12/09 08:57:58;;;;;;;19.83;10.95;;;;;;;3.46;80.41;95629.00;5072421;28;20495;-74
2021/12/09 09:00:26;;;;;;;16.80;11.57;;;;;;;3.48;79.90;95632.22;5072910;28;20049;-73
2021/12/09 09:02:57;;;;;;;18.45;10.65;;;;;;;3.50;79.77;95625.13;5073159;28;20048;-73
2021/12/09 09:05:25;;;;;;;12.50;8.75;;;;;;;3.51;79.33;95618.97;5072713;28;20060;-73
2021/12/09 09:07:55;;;;;;;13.98;10.27;;;;;;;3.52;79.20;95633.50;5071603;28;20494;-73
2021/12/09 09:10:26;;;;;;;18.20;10.15;;;;;;;3.53;79.28;95635.09;5088322;28;20052;-73
2021/12/09 09:12:54;;;;;;;10.68;9.07;;;;;;;3.56;79.78;95629.59;5092152;28;20055;-73
2021/12/09 09:15:27;;;;;;;12.02;8.82;;;;;;;3.58;80.08;95640.56;5094166;28;20145;-74
2021/12/09 09:17:55;;;;;;;12.75;7.88;;;;;;;3.61;79.69;95647.19;5091851;28;20051;-73
2021/12/09 09:20:25;;;;;;;16.25;8.27;;;;;;;3.60;78.70;95650.72;5092740;28;20055;-73
2021/12/09 09:22:54;;;;;;;15.98;8.80;;;;;;;3.59;78.78;95652.50;5092061;28;20075;-73
2021/12/09 09:25:29;;;;;;;14.98;8.30;;;;;;;3.61;79.30;95655.75;5094229;28;20067;-73
2021/12/09 09:27:58;;;;;;;13.05;8.57;;;;;;;3.63;79.41;95652.97;5101026;28;20118;-73
2021/12/09 09:30:34;;;;;;;15.02;8.15;;;;;;;3.62;79.02;95657.34;5101461;28;20516;-73
2021/12/09 09:33:03;;;;;;;37.60;22.60;;;;;;;3.66;79.38;95656.03;5098430;28;20048;-73
2021/12/09 09:35:30;;;;;;;28.23;14.65;;;;;;;3.69;79.63;95654.91;5096234;28;20516;-73
2021/12/09 09:38:00;;;;;;;16.55;9.85;;;;;;;3.71;79.78;95653.78;5095041;28;20044;-75
2021/12/09 09:40:38;;;;;;;21.40;12.82;;;;;;;3.72;79.47;95652.81;5096007;28;20049;-74
2021/12/09 09:43:15;;;;;;;19.23;11.45;;;;;;;3.74;79.57;95654.44;5092952;28;20055;-73
2021/12/09 09:45:43;;;;;;;16.70;9.70;;;;;;;3.72;79.28;95660.56;5092727;28;20044;-74
2021/12/09 09:48:13;;;;;;;18.35;9.75;;;;;;;3.70;79.33;95665.06;5091751;28;20055;-74
2021/12/09 09:50:40;;;;;;;18.77;10.38;;;;;;;3.68;79.21;95669.59;5093297;28;20048;-73
2021/12/09 09:53:10;;;;;;;13.75;8.45;;;;;;;3.68;79.50;95669.59;5097689;28;20040;-74
2021/12/09 09:55:40;;;;;;;14.00;8.40;;;;;;;3.69;79.64;95672.97;5094765;28;20052;-74
2021/12/09 09:58:08;;;;;;;14.95;8.65;;;;;;;3.70;79.35;95665.06;5093998;28;20052;-74
2021/12/09 10:00:36;;;;;;;12.75;9.20;;;;;;;3.71;79.40;95671.84;5093972;28;20052;-74
2021/12/09 10:03:09;;;;;;;16.92;8.88;;;;;;;3.72;79.52;95681.19;5092447;28;20063;-73
2021/12/09 10:05:43;;;;;;;14.68;8.25;;;;;;;3.74;79.35;95678.47;5092162;28;20055;-74
2021/12/09 10:08:13;;;;;;;18.40;8.45;;;;;;;3.75;79.38;95681.84;5091650;28;20056;-73
2021/12/09 10:10:42;;;;;;;14.57;9.45;;;;;;;3.75;79.37;95681.84;5091941;28;20048;-73
2021/12/09 10:13:13;;;;;;;15.32;7.65;;;;;;;3.73;79.52;95669.09;5091227;28;20445;-74
2021/12/09 10:15:47;;;;;;;12.15;8.18;;;;;;;3.71;79.28;95674.41;5092150;28;20429;-73
2021/12/09 10:18:31;;;;;;;14.25;9.30;;;;;;;3.71;79.12;95671.84;5092201;28;20062;-73
2021/12/09 10:20:59;;;;;;;21.55;10.07;;;;;;;3.73;79.13;95674.25;5091870;28;20059;-73
2021/12/09 10:23:35;;;;;;;18.35;8.65;;;;;;;3.74;79.31;95670.72;5075746;22;20629;-73
2021/12/09 10:26:22;;;;;;;18.77;10.50;;;;;;;3.77;79.42;95678.13;5051575;28;20136;-72
2021/12/09 10:28:53;;;;;;;15.45;10.02;;;;;;;3.81;78.75;95670.88;5054323;28;20057;-73
2021/12/09 10:31:25;;;;;;;17.02;10.77;;;;;;;3.83;78.53;95671.53;5054911;28;20045;-72
2021/12/09 10:33:59;;;;;;;14.32;9.73;;;;;;;3.84;78.52;95662.81;5055000;28;20056;-72
2021/12/09 10:36:56;;;;;;;13.32;9.13;;;;;;;3.93;79.21;95666.97;5054873;28;20053;-72
2021/12/09 10:39:32;;;;;;;12.50;9.52;;;;;;;3.98;78.63;95667.31;5020480;28;20053;-72
2021/12/09 10:42:02;;;;;;;14.40;8.82;;;;;;;4.02;78.57;95672.94;5054786;28;20502;-72
2021/12/09 10:44:32;;;;;;;12.70;9.38;;;;;;;4.03;78.48;95669.41;5054820;28;20061;-72
2021/12/09 10:47:08;;;;;;;17.58;9.63;;;;;;;4.06;78.99;95669.88;5054842;28;20057;-71
2021/12/09 10:50:08;;;;;;;17.08;11.23;;;;;;;4.09;79.00;95666.19;5054710;28;20061;-71
2021/12/09 10:52:42;;;;;;;15.48;8.38;;;;;;;4.06;77.65;95664.72;5054909;28;20056;-72
2021/12/09 10:55:18;;;;;;;13.02;9.00;;;;;;;4.05;78.21;95655.38;5054929;28;20091;-72
2021/12/09 10:57:52;;;;;;;14.82;8.77;;;;;;;4.04;78.01;95648.59;5054521;28;20068;-71
2021/12/09 11:00:24;;;;;;;10.25;8.05;;;;;;;4.05;78.36;95644.25;5054656;28;20052;-72
2021/12/09 11:03:08;;;;;;;16.75;10.80;;;;;;;4.05;78.79;95645.03;5054487;28;20049;-72
2021/12/09 11:05:38;;;;;;;17.33;10.93;;;;;;;4.01;78.97;95638.59;5054564;28;20106;-72
2021/12/09 11:08:24;;;;;;;14.18;8.77;;;;;;;4.00;79.25;95641.34;5054009;28;20449;-72
2021/12/09 11:10:59;;;;;;;14.63;9.40;;;;;;;3.98;79.38;95644.09;5054299;28;20049;-73
2021/12/09 11:13:36;;;;;;;16.80;9.27;;;;;;;3.97;79.28;95644.25;5074866;28;20048;-72
2021/12/09 11:16:05;;;;;;;12.88;7.50;;;;;;;3.93;78.86;95646.34;5075442;28;20049;-72
2021/12/09 11:18:36;;;;;;;12.98;7.57;;;;;;;3.93;78.95;95648.94;5066606;28;20056;-72
2021/12/09 11:21:09;;;;;;;11.60;7.10;;;;;;;3.92;79.04;95652.50;5055132;28;20418;-73
2021/12/09 11:23:42;;;;;;;10.82;6.65;;;;;;;3.91;78.72;95645.69;5054778;28;20659;-72
2021/12/09 11:26:31;;;;;;;11.27;7.10;;;;;;;3.89;78.70;95640.72;5054405;28;20049;-73
2021/12/09 11:29:01;;;;;;;11.48;7.82;;;;;;;3.89;78.87;95639.91;5054489;28;20052;-72
2021/12/09 11:31:33;;;;;;;10.57;8.05;;;;;;;3.91;79.54;95633.63;5054099;28;20052;-72
2021/12/09 11:34:09;;;;;;;8.75;6.40;;;;;;;3.94;79.38;95632.50;5054322;28;20068;-73
2021/12/09 11:36:45;;;;;;;9.15;6.72;;;;;;;3.92;78.85;95630.06;5053868;28;20057;-73
2021/12/09 11:39:19;;;;;;;12.73;7.07;;;;;;;3.94;79.10;95627.34;5053006;28;20136;-72
2021/12/09 11:41:49;;;;;;;9.82;6.80;;;;;;;3.94;79.20;95629.91;5053878;28;20045;-73
2021/12/09 11:44:17;;;;;;;9.43;6.53;;;;;;;3.96;79.90;95630.56;5053720;28;20056;-73
2021/12/09 11:46:47;;;;;;;11.85;7.18;;;;;;;3.99;79.48;95632.78;5053611;28;20059;-73
2021/12/09 11:49:15;;;;;;;12.32;7.50;;;;;;;3.98;79.78;95633.78;5053753;28;20410;-73